createdAt,value
2019-03-27T00:01:10.969Z,43.31
2019-03-27T00:03:43.458Z,43.36
2019-03-27T00:06:15.920Z,43.55
2019-03-27T00:08:48.337Z,43.50
2019-03-27T00:11:20.602Z,43.53
2019-03-27T00:13:52.496Z,43.20
2019-03-27T00:16:24.801Z,43.35
2019-03-27T00:18:57.105Z,43.46
2019-03-27T00:21:29.146Z,44.02
2019-03-27T00:24:01.233Z,43.34
2019-03-27T00:26:33.349Z,42.93
2019-03-27T00:29:05.586Z,43.19
2019-03-27T00:31:37.566Z,43.17
2019-03-27T00:34:09.485Z,43.30
2019-03-27T00:36:41.581Z,43.06
2019-03-27T00:39:13.730Z,43.36
2019-03-27T00:41:46.026Z,43.15
2019-03-27T00:44:18.121Z,43.13
2019-03-27T00:46:50.411Z,42.95
2019-03-27T00:49:22.562Z,42.97
2019-03-27T00:51:54.602Z,42.59
2019-03-27T00:54:26.871Z,42.46
2019-03-27T00:56:59.163Z,43.07
2019-03-27T00:59:31.324Z,42.74
2019-03-27T01:02:03.351Z,42.54
2019-03-27T01:04:35.542Z,42.86
2019-03-27T01:07:07.827Z,43.43
2019-03-27T01:09:40.362Z,43.23
2019-03-27T01:12:12.432Z,43.22
2019-03-27T01:14:44.879Z,44.08
2019-03-27T01:17:16.948Z,43.77
2019-03-27T01:19:49.005Z,44.15
2019-03-27T01:22:21.435Z,43.80
2019-03-27T01:24:53.893Z,44.00
2019-03-27T01:27:25.966Z,44.30
2019-03-27T01:29:58.204Z,44.56
2019-03-27T01:32:30.408Z,44.53
2019-03-27T01:35:02.732Z,44.26
2019-03-27T01:37:35.106Z,44.43
2019-03-27T01:40:10.180Z,44.76
2019-03-27T01:42:42.240Z,44.82
2019-03-27T01:45:14.706Z,44.99
2019-03-27T01:47:46.911Z,45.36
2019-03-27T01:50:19.096Z,45.22
2019-03-27T01:52:51.442Z,45.37
2019-03-27T01:55:23.594Z,45.15
2019-03-27T01:57:55.950Z,45.14
2019-03-27T02:00:28.259Z,45.26
2019-03-27T02:03:00.514Z,45.34
2019-03-27T02:05:32.500Z,45.58
2019-03-27T02:08:04.586Z,45.80
2019-03-27T02:10:36.799Z,45.89
2019-03-27T02:13:10.474Z,46.17
2019-03-27T02:15:42.812Z,46.24
2019-03-27T02:18:15.336Z,46.22
2019-03-27T02:20:47.675Z,46.23
2019-03-27T02:23:19.758Z,46.28
2019-03-27T02:25:52.008Z,46.35
2019-03-27T02:28:23.978Z,46.66
2019-03-27T02:30:56.234Z,46.52
2019-03-27T02:33:28.556Z,46.82
2019-03-27T02:36:00.747Z,46.92
2019-03-27T02:38:33.116Z,46.66
2019-03-27T02:41:05.398Z,46.59
2019-03-27T02:43:37.720Z,46.33
2019-03-27T02:46:23.679Z,46.76
2019-03-27T02:48:44.047Z,47.03
2019-03-27T02:51:16.486Z,46.88
2019-03-27T02:53:48.966Z,47.16
2019-03-27T02:56:21.037Z,47.66
2019-03-27T02:58:52.984Z,47.96
2019-03-27T03:01:25.224Z,48.18
2019-03-27T03:03:57.424Z,47.96
2019-03-27T03:06:29.848Z,48.04
2019-03-27T03:09:02.134Z,48.43
2019-03-27T03:11:35.266Z,48.43
2019-03-27T03:14:07.374Z,48.36
2019-03-27T03:16:42.649Z,48.18
2019-03-27T03:19:13.596Z,48.22
2019-03-27T03:21:45.754Z,47.86
2019-03-27T03:24:17.966Z,48.21
2019-03-27T03:26:51.483Z,47.79
2019-03-27T03:29:24.197Z,47.98
2019-03-27T03:31:56.557Z,47.96
2019-03-27T03:34:28.962Z,48.10
2019-03-27T03:37:01.223Z,47.77
2019-03-27T03:39:33.577Z,47.93
2019-03-27T03:42:05.907Z,48.01
2019-03-27T03:44:38.082Z,48.53
2019-03-27T03:47:10.393Z,48.23
2019-03-27T03:49:42.854Z,48.20
2019-03-27T03:52:15.247Z,48.59
2019-03-27T03:54:47.823Z,48.47
2019-03-27T03:57:20.348Z,48.59
2019-03-27T03:59:53.953Z,48.90
2019-03-27T04:02:27.433Z,49.36
2019-03-27T04:04:59.992Z,49.15
2019-03-27T04:07:32.162Z,49.20
2019-03-27T04:10:04.282Z,49.55
2019-03-27T04:12:36.424Z,49.87
2019-03-27T04:15:08.277Z,50.17
2019-03-27T04:17:40.682Z,50.34
2019-03-27T04:20:12.818Z,50.99
2019-03-27T04:22:44.794Z,50.83
2019-03-27T04:25:17.022Z,50.76
2019-03-27T04:27:49.363Z,51.38
2019-03-27T04:30:21.405Z,51.60
2019-03-27T04:32:53.608Z,51.59
2019-03-27T04:35:25.794Z,51.93
2019-03-27T04:37:57.956Z,51.80
2019-03-27T04:40:30.025Z,51.81
2019-03-27T04:43:02.152Z,51.70
2019-03-27T04:45:34.347Z,51.90
2019-03-27T04:48:06.605Z,51.62
2019-03-27T04:50:38.730Z,51.79
2019-03-27T04:53:10.802Z,51.65
2019-03-27T04:55:42.605Z,51.74
2019-03-27T04:58:15.008Z,51.49
2019-03-27T05:00:47.303Z,51.66
2019-03-27T05:03:19.608Z,51.20
2019-03-27T05:05:52.005Z,50.23
2019-03-27T05:08:24.296Z,49.11
2019-03-27T05:10:56.452Z,47.57
2019-03-27T05:13:28.145Z,46.57
2019-03-27T05:16:00.287Z,45.46
2019-03-27T05:18:32.203Z,45.07
2019-03-27T05:21:05.607Z,43.84
2019-03-27T05:23:38.131Z,41.58
2019-03-27T05:26:10.452Z,40.95
2019-03-27T05:28:42.749Z,40.36
2019-03-27T05:31:14.820Z,40.33
2019-03-27T05:33:47.156Z,38.94
2019-03-27T05:36:19.331Z,38.53
2019-03-27T05:38:51.278Z,38.04
2019-03-27T05:41:23.414Z,38.36
2019-03-27T05:43:55.953Z,37.60
2019-03-27T05:46:27.919Z,38.08
2019-03-27T05:49:00.028Z,37.62
2019-03-27T05:51:32.133Z,36.56
2019-03-27T05:54:04.599Z,36.47
2019-03-27T05:56:37.057Z,37.15
2019-03-27T05:59:09.414Z,36.12
2019-03-27T06:01:41.687Z,36.64
2019-03-27T06:04:13.958Z,35.96
2019-03-27T06:06:46.270Z,34.90
2019-03-27T06:09:18.441Z,34.45
2019-03-27T06:11:50.775Z,33.35
2019-03-27T06:14:23.269Z,32.50
2019-03-27T06:16:56.580Z,31.13
2019-03-27T06:19:29.026Z,31.06
2019-03-27T06:22:01.401Z,30.68
2019-03-27T06:24:33.772Z,30.19
2019-03-27T06:27:06.066Z,29.56
2019-03-27T06:29:38.533Z,28.79
2019-03-27T06:32:10.798Z,29.70
2019-03-27T06:34:42.909Z,29.30
2019-03-27T06:37:15.202Z,30.36
2019-03-27T06:39:47.461Z,30.55
2019-03-27T06:42:20.153Z,30.86
2019-03-27T06:44:52.348Z,32.86
2019-03-27T06:47:25.721Z,31.51
2019-03-27T06:49:57.963Z,30.71
2019-03-27T06:52:30.013Z,31.64
2019-03-27T06:55:02.341Z,31.49
2019-03-27T06:57:34.640Z,31.29
2019-03-27T07:00:08.099Z,31.92
2019-03-27T07:02:40.286Z,32.43
2019-03-27T07:05:12.779Z,32.69
2019-03-27T07:07:45.241Z,32.53
2019-03-27T07:10:17.694Z,31.86
2019-03-27T07:12:49.698Z,32.52
2019-03-27T07:15:21.800Z,32.68
2019-03-27T07:17:54.004Z,32.69
2019-03-27T07:20:26.492Z,32.68
2019-03-27T07:22:58.842Z,32.57
2019-03-27T07:25:31.292Z,32.40
2019-03-27T07:28:03.383Z,32.33
2019-03-27T07:30:35.580Z,32.31
2019-03-27T07:33:07.795Z,32.88
2019-03-27T07:35:40.018Z,32.40
2019-03-27T07:38:12.104Z,32.75
2019-03-27T07:40:44.484Z,33.13
2019-03-27T07:43:16.849Z,32.68
2019-03-27T07:45:49.168Z,31.96
2019-03-27T07:48:21.714Z,32.12
2019-03-27T07:50:53.922Z,32.39
2019-03-27T07:53:26.255Z,30.36
2019-03-27T07:55:58.718Z,29.66
2019-03-27T07:58:31.197Z,31.25
2019-03-27T08:01:03.647Z,30.46
2019-03-27T08:03:35.832Z,30.40
2019-03-27T08:06:08.124Z,29.74
2019-03-27T08:08:40.483Z,30.22
2019-03-27T08:11:13.098Z,30.12
2019-03-27T08:13:45.216Z,30.50
2019-03-27T08:16:17.750Z,29.42
2019-03-27T08:18:50.064Z,30.32
2019-03-27T08:21:22.223Z,30.88
2019-03-27T08:23:54.493Z,29.71
2019-03-27T08:26:26.910Z,29.99
2019-03-27T08:28:59.191Z,29.64
2019-03-27T08:31:31.540Z,29.00
2019-03-27T08:34:03.684Z,27.78
2019-03-27T08:36:35.622Z,27.37
2019-03-27T08:39:09.665Z,26.81
2019-03-27T08:41:42.127Z,27.39
2019-03-27T08:44:14.148Z,27.85
2019-03-27T08:46:46.382Z,29.29
2019-03-27T08:49:22.266Z,27.67
2019-03-27T08:51:52.663Z,27.06
2019-03-27T08:54:25.016Z,28.81
2019-03-27T08:56:57.242Z,27.51
2019-03-27T08:59:29.457Z,28.25
2019-03-27T09:02:01.482Z,28.93
2019-03-27T09:04:33.909Z,29.02
2019-03-27T09:07:06.074Z,28.70
2019-03-27T09:09:38.276Z,28.14
2019-03-27T09:12:10.276Z,29.94
2019-03-27T09:14:42.559Z,29.37
2019-03-27T09:17:14.603Z,29.30
2019-03-27T09:19:46.698Z,29.33
2019-03-27T09:22:18.941Z,29.83
2019-03-27T09:24:50.957Z,28.84
2019-03-27T09:27:23.133Z,28.46
2019-03-27T09:29:55.436Z,28.08
2019-03-27T09:32:27.862Z,26.34
2019-03-27T09:35:00.360Z,25.93
2019-03-27T09:37:32.714Z,25.96
2019-03-27T09:40:05.139Z,25.34
2019-03-27T09:42:37.305Z,25.40
2019-03-27T09:45:10.799Z,25.47
2019-03-27T09:47:43.066Z,24.72
2019-03-27T09:50:15.406Z,24.88
2019-03-27T09:52:47.718Z,24.48
2019-03-27T09:55:19.926Z,23.73
2019-03-27T09:57:52.266Z,23.84
2019-03-27T10:00:50.881Z,23.90
2019-03-27T10:03:23.209Z,22.85
2019-03-27T10:05:55.301Z,22.51
2019-03-27T10:08:27.223Z,22.54
2019-03-27T10:10:59.880Z,22.22
2019-03-27T10:13:32.315Z,22.98
2019-03-27T10:16:04.851Z,21.38
2019-03-27T10:18:37.154Z,21.59
2019-03-27T10:21:10.544Z,20.56
2019-03-27T10:23:42.976Z,20.33
2019-03-27T10:26:15.287Z,21.10
2019-03-27T10:28:48.389Z,21.41
2019-03-27T10:31:20.973Z,21.64
2019-03-27T10:33:53.380Z,21.74
2019-03-27T10:36:25.629Z,22.80
2019-03-27T10:38:57.913Z,23.19
2019-03-27T10:41:30.292Z,23.84
2019-03-27T10:44:02.733Z,21.99
2019-03-27T10:46:35.108Z,23.54
2019-03-27T10:49:07.468Z,22.54
2019-03-27T10:51:39.492Z,23.74
2019-03-27T10:54:11.600Z,24.29
2019-03-27T10:56:43.778Z,23.04
2019-03-27T10:59:15.874Z,23.48
2019-03-27T11:01:49.279Z,23.30
2019-03-27T11:04:21.404Z,22.16
2019-03-27T11:06:53.844Z,23.11
2019-03-27T11:09:26.059Z,23.37
2019-03-27T11:11:58.342Z,22.16
2019-03-27T11:14:37.732Z,22.29
2019-03-27T11:17:04.887Z,22.52
2019-03-27T11:19:37.567Z,23.07
2019-03-27T11:22:09.690Z,22.20
2019-03-27T11:24:42.305Z,21.28
2019-03-27T11:27:15.112Z,22.11
2019-03-27T11:29:47.192Z,22.20
2019-03-27T11:32:19.582Z,22.19
2019-03-27T11:34:51.987Z,21.99
2019-03-27T11:37:24.210Z,21.32
2019-03-27T11:39:56.404Z,21.84
2019-03-27T11:42:28.617Z,21.58
2019-03-27T11:45:00.921Z,21.08
2019-03-27T11:47:33.029Z,20.46
2019-03-27T11:50:05.678Z,20.18
2019-03-27T11:52:37.893Z,20.32
2019-03-27T11:55:10.264Z,20.64
2019-03-27T11:57:42.651Z,21.08
2019-03-27T12:00:14.909Z,20.65
2019-03-27T12:02:47.187Z,20.08
2019-03-27T12:05:19.777Z,20.72
2019-03-27T12:07:51.902Z,20.68
2019-03-27T12:10:24.200Z,21.30
2019-03-27T12:12:56.333Z,20.75
2019-03-27T12:15:41.288Z,20.03
2019-03-27T12:18:16.275Z,20.12
2019-03-27T12:20:59.075Z,19.69
2019-03-27T12:23:22.546Z,19.59
2019-03-27T12:25:55.459Z,19.20
2019-03-27T12:28:26.442Z,19.59
2019-03-27T12:30:58.540Z,19.33
2019-03-27T12:33:30.778Z,18.48
2019-03-27T12:36:03.015Z,17.57
2019-03-27T12:38:35.438Z,16.83
2019-03-27T12:41:07.761Z,16.24
2019-03-27T12:43:39.809Z,15.65
2019-03-27T12:46:12.157Z,16.39
2019-03-27T12:48:44.304Z,16.02
2019-03-27T12:51:16.795Z,15.67
2019-03-27T12:53:49.254Z,15.68
2019-03-27T12:56:21.766Z,14.75
2019-03-27T12:58:53.702Z,14.45
2019-03-27T13:01:25.792Z,15.20
2019-03-27T13:03:57.848Z,15.17
2019-03-27T13:06:30.405Z,15.45
2019-03-27T13:09:03.052Z,16.28
2019-03-27T13:11:36.876Z,15.92
2019-03-27T13:14:09.192Z,15.68
2019-03-27T13:16:41.226Z,15.61
2019-03-27T13:19:13.631Z,14.67
2019-03-27T13:21:45.625Z,16.21
2019-03-27T13:24:17.880Z,16.32
2019-03-27T13:26:49.862Z,16.04
2019-03-27T13:29:22.360Z,16.45
2019-03-27T13:31:54.223Z,15.95
2019-03-27T13:34:26.350Z,16.24
2019-03-27T13:36:58.784Z,15.74
2019-03-27T13:39:30.804Z,15.81
2019-03-27T13:42:03.103Z,17.27
2019-03-27T13:44:37.303Z,17.03
2019-03-27T13:47:09.439Z,17.03
2019-03-27T13:49:41.712Z,17.49
2019-03-27T13:52:13.788Z,17.02
2019-03-27T13:54:46.240Z,16.84
2019-03-27T13:57:18.220Z,16.75
2019-03-27T13:59:50.461Z,16.44
2019-03-27T14:02:22.717Z,17.77
2019-03-27T14:04:55.000Z,18.38
2019-03-27T14:07:27.158Z,18.15
2019-03-27T14:09:59.507Z,18.55
2019-03-27T14:12:31.739Z,18.94
2019-03-27T14:15:04.289Z,18.39
2019-03-27T14:17:36.501Z,17.86
2019-03-27T14:20:09.412Z,16.90
2019-03-27T14:22:41.910Z,17.71
2019-03-27T14:25:15.689Z,18.66
2019-03-27T14:27:48.903Z,18.45
2019-03-27T14:30:58.474Z,18.71
2019-03-27T14:33:30.678Z,18.64
2019-03-27T14:36:02.944Z,17.49
2019-03-27T14:38:35.338Z,17.53
2019-03-27T14:41:08.028Z,18.45
2019-03-27T14:43:40.630Z,18.10
2019-03-27T14:46:12.752Z,18.25
2019-03-27T14:48:45.305Z,19.11
2019-03-27T14:51:17.566Z,18.80
2019-03-27T14:53:49.742Z,19.43
2019-03-27T14:56:21.755Z,19.80
2019-03-27T14:58:53.717Z,19.60
2019-03-27T15:01:25.901Z,20.05
2019-03-27T15:03:58.203Z,20.59
2019-03-27T15:06:30.461Z,20.96
2019-03-27T15:09:02.887Z,21.28
2019-03-27T15:11:36.507Z,21.22
2019-03-27T15:14:08.743Z,21.90
2019-03-27T15:16:40.979Z,22.67
2019-03-27T15:19:13.152Z,22.64
2019-03-27T15:21:45.512Z,23.31
2019-03-27T15:24:20.446Z,23.48
2019-03-27T15:26:51.592Z,23.80
2019-03-27T15:29:23.814Z,24.12
2019-03-27T15:31:56.266Z,24.45
2019-03-27T15:34:28.320Z,24.55
2019-03-27T15:37:00.576Z,24.81
2019-03-27T15:39:32.693Z,24.85
2019-03-27T15:42:09.174Z,24.77
2019-03-27T15:44:39.998Z,24.74
2019-03-27T15:47:13.607Z,25.05
2019-03-27T15:49:45.671Z,25.62
2019-03-27T15:52:17.752Z,25.55
2019-03-27T15:54:50.139Z,25.94
2019-03-27T15:57:22.417Z,25.63
2019-03-27T15:59:54.539Z,26.07
2019-03-27T16:02:26.651Z,26.29
2019-03-27T16:04:58.620Z,26.39
2019-03-27T16:07:31.475Z,26.56
2019-03-27T16:10:03.767Z,26.73
2019-03-27T16:12:36.679Z,26.91
2019-03-27T16:15:10.356Z,26.86
2019-03-27T16:17:42.801Z,27.32
2019-03-27T16:20:15.388Z,26.96
2019-03-27T16:22:50.850Z,27.31
2019-03-27T16:25:21.681Z,27.43
2019-03-27T16:27:53.833Z,27.15
2019-03-27T16:30:26.126Z,27.04
2019-03-27T16:32:58.295Z,26.86
2019-03-27T16:35:30.283Z,27.22
2019-03-27T16:38:02.448Z,27.39
2019-03-27T16:40:48.256Z,27.62
2019-03-27T16:43:21.355Z,27.90
2019-03-27T16:45:53.559Z,28.30
2019-03-27T16:48:25.874Z,28.67
2019-03-27T16:50:59.556Z,28.73
2019-03-27T16:53:31.957Z,28.74
2019-03-27T16:56:05.468Z,29.01
2019-03-27T16:58:37.839Z,29.06
2019-03-27T17:01:10.077Z,29.26
2019-03-27T17:03:42.796Z,29.64
2019-03-27T17:06:15.193Z,30.00
2019-03-27T17:08:47.539Z,29.42
2019-03-27T17:11:19.823Z,29.74
2019-03-27T17:13:51.823Z,29.61
2019-03-27T17:16:24.050Z,29.54
2019-03-27T17:18:56.195Z,29.22
2019-03-27T17:21:28.412Z,29.51
2019-03-27T17:24:00.634Z,29.34
2019-03-27T17:26:32.972Z,29.54
2019-03-27T17:29:05.251Z,29.43
2019-03-27T17:31:37.697Z,29.64
2019-03-27T17:34:09.989Z,29.70
2019-03-27T17:36:42.366Z,29.90
2019-03-27T17:39:14.822Z,30.34
2019-03-27T17:41:47.077Z,30.57
2019-03-27T17:44:19.377Z,30.57
2019-03-27T17:46:51.481Z,30.74
2019-03-27T17:49:23.829Z,31.20
2019-03-27T17:51:56.154Z,31.16
2019-03-27T17:54:28.611Z,31.09
2019-03-27T17:57:00.874Z,31.49
2019-03-27T17:59:33.323Z,31.91
2019-03-27T18:02:05.851Z,32.14
2019-03-27T18:04:37.924Z,31.90
2019-03-27T18:07:10.107Z,32.57
2019-03-27T18:09:42.480Z,32.60
2019-03-27T18:12:14.900Z,32.93
2019-03-27T18:14:47.198Z,32.98
2019-03-27T18:17:19.438Z,33.16
2019-03-27T18:19:51.833Z,33.08
2019-03-27T18:22:24.266Z,33.06
2019-03-27T18:24:56.813Z,33.06
2019-03-27T18:27:29.155Z,33.31
2019-03-27T18:30:01.556Z,33.64
2019-03-27T18:32:34.321Z,33.77
2019-03-27T18:35:07.387Z,33.86
2019-03-27T18:37:39.901Z,34.22
2019-03-27T18:40:12.361Z,34.82
2019-03-27T18:42:44.337Z,35.14
2019-03-27T18:45:16.699Z,35.11
2019-03-27T18:47:48.950Z,36.00
2019-03-27T18:50:21.157Z,35.68
2019-03-27T18:52:53.144Z,35.84
2019-03-27T18:55:27.053Z,35.69
2019-03-27T18:58:00.779Z,35.92
2019-03-27T19:00:33.599Z,36.10
2019-03-27T19:03:06.099Z,35.98
2019-03-27T19:05:38.493Z,35.95
2019-03-27T19:08:10.895Z,36.27
2019-03-27T19:10:43.284Z,36.46
2019-03-27T19:13:15.507Z,36.53
2019-03-27T19:15:48.963Z,36.70
2019-03-27T19:18:22.020Z,37.15
2019-03-27T19:20:54.553Z,37.00
2019-03-27T19:23:27.113Z,37.07
2019-03-27T19:25:59.437Z,37.22
2019-03-27T19:28:31.436Z,36.95
2019-03-27T19:31:03.937Z,37.39
2019-03-27T19:33:36.506Z,36.86
2019-03-27T19:36:10.345Z,37.07
2019-03-27T19:38:42.507Z,37.30
2019-03-27T19:41:15.124Z,37.39
2019-03-27T19:43:47.632Z,37.43
2019-03-27T19:46:20.170Z,37.43
2019-03-27T19:48:52.359Z,37.16
2019-03-27T19:51:24.590Z,37.18
2019-03-27T19:53:56.783Z,37.31
2019-03-27T19:56:28.884Z,37.36
2019-03-27T19:59:01.430Z,37.57
2019-03-27T20:01:33.628Z,37.74
2019-03-27T20:04:05.836Z,37.92
2019-03-27T20:06:38.264Z,38.24
2019-03-27T20:09:10.751Z,38.50
2019-03-27T20:11:43.983Z,38.96
2019-03-27T20:14:16.218Z,39.26
2019-03-27T20:16:48.452Z,39.32
2019-03-27T20:19:20.485Z,39.48
2019-03-27T20:21:52.609Z,39.71
2019-03-27T20:24:24.814Z,39.63
2019-03-27T20:26:57.128Z,39.68
2019-03-27T20:29:29.170Z,39.90
2019-03-27T20:32:01.234Z,39.95
2019-03-27T20:34:33.664Z,40.20
2019-03-27T20:37:05.844Z,40.17
2019-03-27T20:39:37.919Z,40.24
2019-03-27T20:42:10.123Z,40.31
2019-03-27T20:44:42.791Z,40.56
2019-03-27T20:47:15.205Z,40.58
2019-03-27T20:49:47.543Z,40.87
2019-03-27T20:52:20.184Z,40.90
2019-03-27T20:54:55.184Z,41.00
2019-03-27T20:57:26.412Z,41.47
2019-03-27T20:59:58.851Z,41.54
2019-03-27T21:02:31.398Z,41.47
2019-03-27T21:05:03.881Z,41.39
2019-03-27T21:07:36.249Z,41.21
2019-03-27T21:10:09.555Z,41.37
2019-03-27T21:12:42.116Z,41.39
2019-03-27T21:15:14.578Z,41.58
2019-03-27T21:17:46.892Z,41.51
2019-03-27T21:20:19.140Z,41.49
2019-03-27T21:22:51.294Z,41.38
2019-03-27T21:25:23.465Z,41.52
2019-03-27T21:27:56.013Z,41.50
2019-03-27T21:30:28.373Z,41.49
2019-03-27T21:33:00.547Z,41.44
2019-03-27T21:35:32.626Z,41.38
2019-03-27T21:38:05.048Z,41.36
2019-03-27T21:40:37.148Z,41.92
2019-03-27T21:43:09.129Z,41.53
2019-03-27T21:45:41.420Z,41.34
2019-03-27T21:48:13.972Z,41.29
2019-03-27T21:50:46.212Z,41.79
2019-03-27T21:53:18.458Z,41.24
2019-03-27T21:55:50.402Z,42.13
2019-03-27T21:58:22.874Z,42.12
2019-03-27T22:00:55.538Z,42.15
2019-03-27T22:03:28.669Z,41.56
2019-03-27T22:06:01.043Z,41.51
2019-03-27T22:08:33.129Z,41.62
2019-03-27T22:11:05.234Z,41.89
2019-03-27T22:13:37.640Z,41.35
2019-03-27T22:16:09.988Z,41.15
2019-03-27T22:18:42.001Z,41.24
2019-03-27T22:21:14.005Z,41.16
2019-03-27T22:23:46.342Z,41.11
2019-03-27T22:26:18.819Z,41.05
2019-03-27T22:28:52.068Z,41.37
2019-03-27T22:31:24.317Z,41.10
2019-03-27T22:33:56.584Z,41.18
2019-03-27T22:36:29.135Z,41.00
2019-03-27T22:39:01.708Z,41.52
2019-03-27T22:41:35.619Z,41.75
2019-03-27T22:44:07.909Z,41.74
2019-03-27T22:46:40.127Z,42.13
2019-03-27T22:49:12.135Z,42.32
2019-03-27T22:51:44.404Z,42.46
2019-03-27T22:54:18.066Z,42.69
2019-03-27T22:56:50.252Z,42.78
2019-03-27T22:59:22.690Z,42.95
2019-03-27T23:01:56.630Z,43.01
2019-03-27T23:04:29.756Z,43.20
2019-03-27T23:07:02.968Z,43.25
2019-03-27T23:09:34.681Z,43.38
2019-03-27T23:12:07.642Z,43.70
2019-03-27T23:14:40.612Z,44.01
2019-03-27T23:17:13.848Z,44.27
2019-03-27T23:19:47.255Z,44.56
2019-03-27T23:22:20.383Z,44.76
2019-03-27T23:24:53.316Z,44.85
2019-03-27T23:27:26.436Z,44.81
2019-03-27T23:29:59.547Z,44.70
2019-03-27T23:32:32.646Z,44.69
2019-03-27T23:35:06.304Z,44.60
2019-03-27T23:37:39.590Z,44.58
2019-03-27T23:40:11.005Z,44.90
2019-03-27T23:42:43.975Z,45.03
2019-03-27T23:45:17.531Z,45.41
2019-03-27T23:47:50.413Z,45.53
2019-03-27T23:50:23.585Z,45.68
2019-03-27T23:52:56.511Z,45.91
2019-03-27T23:55:30.026Z,46.16
2019-03-27T23:58:03.070Z,46.33
